sensor_id;sensor_type;location;lat;lon;timestamp;pressure;altitude;pressure_sealevel;temperature;humidity
77153;BME280;66124;51.146;17.072;2023-02-08T00:02:10;102866.88;;;-1.18;69.09
77153;BME280;66124;51.146;17.072;2023-02-08T00:04:39;102866.70;;;-1.18;69.05
77153;BME280;66124;51.146;17.072;2023-02-08T00:07:09;102871.35;;;-1.17;69.13
77153;BME280;66124;51.146;17.072;2023-02-08T00:09:38;102875.14;;;-1.17;69.20
77153;BME280;66124;51.146;17.072;2023-02-08T00:12:07;102874.70;;;-1.20;69.27
77153;BME280;66124;51.146;17.072;2023-02-08T00:14:37;102879.00;;;-1.19;69.35
77153;BME280;66124;51.146;17.072;2023-02-08T00:17:07;102879.86;;;-1.19;69.45
77153;BME280;66124;51.146;17.072;2023-02-08T00:19:36;102881.70;;;-1.17;69.32
77153;BME280;66124;51.146;17.072;2023-02-08T00:22:04;102884.75;;;-1.15;69.41
77153;BME280;66124;51.146;17.072;2023-02-08T00:24:32;102872.36;;;-1.22;69.33
77153;BME280;66124;51.146;17.072;2023-02-08T00:32:08;102893.88;;;-1.14;69.50
77153;BME280;66124;51.146;17.072;2023-02-08T00:34:37;102900.34;;;-1.17;69.63
77153;BME280;66124;51.146;17.072;2023-02-08T00:37:07;102900.67;;;-1.17;69.69
77153;BME280;66124;51.146;17.072;2023-02-08T00:39:37;102902.91;;;-1.16;69.75
77153;BME280;66124;51.146;17.072;2023-02-08T00:42:06;102900.11;;;-1.14;69.81
77153;BME280;66124;51.146;17.072;2023-02-08T00:44:36;102895.41;;;-1.13;69.71
77153;BME280;66124;51.146;17.072;2023-02-08T00:47:06;102886.96;;;-1.13;69.80
77153;BME280;66124;51.146;17.072;2023-02-08T00:49:35;102885.16;;;-1.10;70.03
77153;BME280;66124;51.146;17.072;2023-02-08T00:52:05;102889.11;;;-1.10;69.99
77153;BME280;66124;51.146;17.072;2023-02-08T00:54:34;102883.27;;;-1.11;69.96
77153;BME280;66124;51.146;17.072;2023-02-08T00:57:04;102887.96;;;-1.12;70.02
77153;BME280;66124;51.146;17.072;2023-02-08T00:59:33;102888.84;;;-1.13;70.14
77153;BME280;66124;51.146;17.072;2023-02-08T01:02:03;102890.95;;;-1.15;70.08
77153;BME280;66124;51.146;17.072;2023-02-08T01:04:32;102888.08;;;-1.16;69.96
77153;BME280;66124;51.146;17.072;2023-02-08T01:07:01;102887.27;;;-1.19;70.05
77153;BME280;66124;51.146;17.072;2023-02-08T01:09:31;102889.48;;;-1.24;69.82
77153;BME280;66124;51.146;17.072;2023-02-08T01:12:01;102890.06;;;-1.26;69.63
77153;BME280;66124;51.146;17.072;2023-02-08T01:14:31;102892.69;;;-1.28;69.68
77153;BME280;66124;51.146;17.072;2023-02-08T01:17:00;102891.82;;;-1.28;69.72
77153;BME280;66124;51.146;17.072;2023-02-08T01:19:30;102893.50;;;-1.26;69.67
77153;BME280;66124;51.146;17.072;2023-02-08T01:21:59;102890.13;;;-1.23;69.54
77153;BME280;66124;51.146;17.072;2023-02-08T01:24:29;102889.87;;;-1.19;69.71
77153;BME280;66124;51.146;17.072;2023-02-08T01:26:58;102890.16;;;-1.17;69.67
77153;BME280;66124;51.146;17.072;2023-02-08T01:29:28;102882.20;;;-1.17;69.52
77153;BME280;66124;51.146;17.072;2023-02-08T01:31:57;102871.88;;;-1.17;69.34
77153;BME280;66124;51.146;17.072;2023-02-08T01:34:26;102866.73;;;-1.19;69.59
77153;BME280;66124;51.146;17.072;2023-02-08T01:36:56;102863.34;;;-1.21;69.16
77153;BME280;66124;51.146;17.072;2023-02-08T01:39:25;102865.59;;;-1.21;69.54
77153;BME280;66124;51.146;17.072;2023-02-08T01:41:54;102867.44;;;-1.20;69.30
77153;BME280;66124;51.146;17.072;2023-02-08T01:52:18;102870.31;;;-1.11;69.46
77153;BME280;66124;51.146;17.072;2023-02-08T01:54:51;102869.84;;;-1.12;69.23
77153;BME280;66124;51.146;17.072;2023-02-08T01:57:22;102868.23;;;-1.10;69.25
77153;BME280;66124;51.146;17.072;2023-02-08T01:59:55;102870.94;;;-1.08;69.35
77153;BME280;66124;51.146;17.072;2023-02-08T02:02:26;102870.23;;;-1.07;69.31
77153;BME280;66124;51.146;17.072;2023-02-08T02:04:56;102866.30;;;-1.09;69.37
77153;BME280;66124;51.146;17.072;2023-02-08T02:07:27;102866.14;;;-1.09;69.25
77153;BME280;66124;51.146;17.072;2023-02-08T02:10:00;102864.20;;;-1.08;69.35
77153;BME280;66124;51.146;17.072;2023-02-08T02:12:32;102861.13;;;-1.09;69.06
77153;BME280;66124;51.146;17.072;2023-02-08T02:15:02;102852.00;;;-1.10;69.02
77153;BME280;66124;51.146;17.072;2023-02-08T02:17:32;102847.54;;;-1.11;69.20
77153;BME280;66124;51.146;17.072;2023-02-08T02:20:06;102848.97;;;-1.12;68.82
77153;BME280;66124;51.146;17.072;2023-02-08T02:23:11;102849.66;;;-1.12;68.99
77153;BME280;66124;51.146;17.072;2023-02-08T02:26:04;102848.79;;;-1.12;69.07
77153;BME280;66124;51.146;17.072;2023-02-08T02:29:14;102845.00;;;-1.13;68.88
77153;BME280;66124;51.146;17.072;2023-02-08T02:31:55;102843.34;;;-1.15;68.87
77153;BME280;66124;51.146;17.072;2023-02-08T02:34:32;102847.02;;;-1.17;69.21
77153;BME280;66124;51.146;17.072;2023-02-08T02:37:14;102843.91;;;-1.17;68.77
77153;BME280;66124;51.146;17.072;2023-02-08T02:39:52;102843.01;;;-1.15;68.98
77153;BME280;66124;51.146;17.072;2023-02-08T02:42:28;102847.14;;;-1.15;68.59
77153;BME280;66124;51.146;17.072;2023-02-08T02:45:06;102847.30;;;-1.15;68.57
77153;BME280;66124;51.146;17.072;2023-02-08T02:50:18;102845.56;;;-1.14;68.78
77153;BME280;66124;51.146;17.072;2023-02-08T02:52:54;102849.39;;;-1.15;68.52
77153;BME280;66124;51.146;17.072;2023-02-08T02:55:26;102849.59;;;-1.17;68.87
77153;BME280;66124;51.146;17.072;2023-02-08T02:57:56;102845.45;;;-1.17;68.54
77153;BME280;66124;51.146;17.072;2023-02-08T03:00:29;102845.00;;;-1.18;68.62
77153;BME280;66124;51.146;17.072;2023-02-08T03:02:59;102849.02;;;-1.15;68.56
77153;BME280;66124;51.146;17.072;2023-02-08T03:08:25;102847.94;;;-1.06;68.61
77153;BME280;66124;51.146;17.072;2023-02-08T03:11:13;102851.33;;;-1.04;68.54
77153;BME280;66124;51.146;17.072;2023-02-08T03:13:58;102852.16;;;-1.03;68.46
77153;BME280;66124;51.146;17.072;2023-02-08T03:16:34;102854.42;;;-1.03;68.31
77153;BME280;66124;51.146;17.072;2023-02-08T03:19:12;102850.31;;;-1.05;68.19
77153;BME280;66124;51.146;17.072;2023-02-08T03:21:52;102854.46;;;-1.05;68.25
77153;BME280;66124;51.146;17.072;2023-02-08T03:24:28;102855.30;;;-1.04;68.26
77153;BME280;66124;51.146;17.072;2023-02-08T03:27:02;102859.93;;;-1.03;68.33
77153;BME280;66124;51.146;17.072;2023-02-08T03:29:42;102857.05;;;-1.06;68.27
77153;BME280;66124;51.146;17.072;2023-02-08T03:32:18;102870.52;;;-0.99;68.25
77153;BME280;66124;51.146;17.072;2023-02-08T03:34:55;102868.78;;;-0.99;68.34
77153;BME280;66124;51.146;17.072;2023-02-08T03:37:29;102867.05;;;-0.99;68.28
77153;BME280;66124;51.146;17.072;2023-02-08T03:40:04;102871.02;;;-0.98;68.08
77153;BME280;66124;51.146;17.072;2023-02-08T03:42:37;102870.86;;;-0.99;68.07
77153;BME280;66124;51.146;17.072;2023-02-08T03:45:11;102876.41;;;-1.00;68.00
77153;BME280;66124;51.146;17.072;2023-02-08T03:47:45;102877.79;;;-1.00;68.15
77153;BME280;66124;51.146;17.072;2023-02-08T03:50:18;102876.06;;;-1.00;68.18
77153;BME280;66124;51.146;17.072;2023-02-08T03:52:50;102879.69;;;-1.00;68.25
77153;BME280;66124;51.146;17.072;2023-02-08T03:55:23;102860.04;;;-1.07;68.27
77153;BME280;66124;51.146;17.072;2023-02-08T03:57:57;102882.40;;;-0.98;68.33
77153;BME280;66124;51.146;17.072;2023-02-08T04:00:30;102880.98;;;-0.97;68.20
77153;BME280;66124;51.146;17.072;2023-02-08T04:03:05;102879.76;;;-0.96;68.34
77153;BME280;66124;51.146;17.072;2023-02-08T04:05:37;102881.78;;;-0.94;68.13
77153;BME280;66124;51.146;17.072;2023-02-08T04:08:06;102881.80;;;-0.95;68.31
77153;BME280;66124;51.146;17.072;2023-02-08T04:10:36;102885.09;;;-0.95;68.11
77153;BME280;66124;51.146;17.072;2023-02-08T04:13:05;102882.85;;;-0.95;68.11
77153;BME280;66124;51.146;17.072;2023-02-08T04:15:34;102883.59;;;-0.97;68.30
77153;BME280;66124;51.146;17.072;2023-02-08T04:18:02;102883.11;;;-0.98;68.20
77153;BME280;66124;51.146;17.072;2023-02-08T04:20:30;102878.27;;;-0.98;68.29
77153;BME280;66124;51.146;17.072;2023-02-08T04:27:56;102880.34;;;-0.98;68.21
77153;BME280;66124;51.146;17.072;2023-02-08T04:30:25;102883.16;;;-1.00;68.10
77153;BME280;66124;51.146;17.072;2023-02-08T04:32:54;102882.63;;;-1.00;68.13
77153;BME280;66124;51.146;17.072;2023-02-08T04:35:24;102879.31;;;-0.99;68.11
77153;BME280;66124;51.146;17.072;2023-02-08T04:37:53;102882.39;;;-0.97;67.97
77153;BME280;66124;51.146;17.072;2023-02-08T04:40:24;102883.23;;;-0.97;68.20
77153;BME280;66124;51.146;17.072;2023-02-08T04:42:54;102883.87;;;-0.95;67.93
77153;BME280;66124;51.146;17.072;2023-02-08T04:45:23;102879.17;;;-0.93;68.03
77153;BME280;66124;51.146;17.072;2023-02-08T04:47:53;102882.05;;;-0.92;68.04
77153;BME280;66124;51.146;17.072;2023-02-08T04:50:22;102884.09;;;-0.90;68.18
77153;BME280;66124;51.146;17.072;2023-02-08T04:52:52;102883.55;;;-0.89;68.03
77153;BME280;66124;51.146;17.072;2023-02-08T04:55:21;102884.17;;;-0.87;68.12
77153;BME280;66124;51.146;17.072;2023-02-08T04:57:51;102886.04;;;-0.86;68.14
77153;BME280;66124;51.146;17.072;2023-02-08T05:00:20;102885.35;;;-0.86;67.85
77153;BME280;66124;51.146;17.072;2023-02-08T05:02:53;102883.29;;;-0.86;68.07
77153;BME280;66124;51.146;17.072;2023-02-08T05:05:23;102875.33;;;-0.86;67.96
77153;BME280;66124;51.146;17.072;2023-02-08T05:07:52;102876.86;;;-0.84;67.96
77153;BME280;66124;51.146;17.072;2023-02-08T05:10:22;102874.06;;;-0.83;68.24
77153;BME280;66124;51.146;17.072;2023-02-08T05:12:51;102875.77;;;-0.82;67.92
77153;BME280;66124;51.146;17.072;2023-02-08T05:15:22;102881.77;;;-0.81;68.07
77153;BME280;66124;51.146;17.072;2023-02-08T05:17:51;102879.34;;;-0.81;68.04
77153;BME280;66124;51.146;17.072;2023-02-08T05:20:21;102862.08;;;-0.81;68.08
77153;BME280;66124;51.146;17.072;2023-02-08T05:22:50;102864.82;;;-0.80;68.10
77153;BME280;66124;51.146;17.072;2023-02-08T05:25:20;102868.81;;;-0.81;68.14
77153;BME280;66124;51.146;17.072;2023-02-08T05:27:49;102868.73;;;-0.84;68.03
77153;BME280;66124;51.146;17.072;2023-02-08T05:30:19;102869.09;;;-0.91;67.83
77153;BME280;66124;51.146;17.072;2023-02-08T05:32:48;102874.61;;;-0.97;68.08
77153;BME280;66124;51.146;17.072;2023-02-08T05:35:18;102878.92;;;-1.03;68.01
77153;BME280;66124;51.146;17.072;2023-02-08T05:37:47;102878.05;;;-1.09;68.02
77153;BME280;66124;51.146;17.072;2023-02-08T05:40:15;102882.42;;;-1.18;68.05
77153;BME280;66124;51.146;17.072;2023-02-08T05:52:56;102888.13;;;-1.46;69.14
77153;BME280;66124;51.146;17.072;2023-02-08T05:55:25;102889.36;;;-1.53;69.16
77153;BME280;66124;51.146;17.072;2023-02-08T05:57:54;102894.14;;;-1.59;69.08
77153;BME280;66124;51.146;17.072;2023-02-08T06:00:25;102893.59;;;-1.65;69.39
77153;BME280;66124;51.146;17.072;2023-02-08T06:02:55;102898.73;;;-1.70;69.41
77153;BME280;66124;51.146;17.072;2023-02-08T06:05:25;102899.92;;;-1.77;69.59
77153;BME280;66124;51.146;17.072;2023-02-08T06:07:54;102898.19;;;-1.84;69.72
77153;BME280;66124;51.146;17.072;2023-02-08T06:10:23;102898.52;;;-1.91;69.89
77153;BME280;66124;51.146;17.072;2023-02-08T06:12:53;102898.45;;;-1.96;69.94
77153;BME280;66124;51.146;17.072;2023-02-08T06:15:22;102900.31;;;-2.01;70.15
77153;BME280;66124;51.146;17.072;2023-02-08T06:17:52;102891.79;;;-2.13;70.23
77153;BME280;66124;51.146;17.072;2023-02-08T06:20:21;102898.66;;;-2.13;70.41
77153;BME280;66124;51.146;17.072;2023-02-08T06:22:51;102901.01;;;-2.18;70.50
77153;BME280;66124;51.146;17.072;2023-02-08T06:25:20;102899.90;;;-2.22;70.45
77153;BME280;66124;51.146;17.072;2023-02-08T06:27:50;102903.95;;;-2.27;70.55
77153;BME280;66124;51.146;17.072;2023-02-08T06:30:19;102896.63;;;-2.31;70.85
77153;BME280;66124;51.146;17.072;2023-02-08T06:32:49;102896.52;;;-2.34;70.82
77153;BME280;66124;51.146;17.072;2023-02-08T06:35:18;102894.70;;;-2.37;71.08
77153;BME280;66124;51.146;17.072;2023-02-08T06:37:48;102896.84;;;-2.40;71.19
77153;BME280;66124;51.146;17.072;2023-02-08T06:40:17;102895.89;;;-2.44;71.33
77153;BME280;66124;51.146;17.072;2023-02-08T06:42:48;102900.27;;;-2.48;71.43
77153;BME280;66124;51.146;17.072;2023-02-08T06:45:18;102900.35;;;-2.52;71.42
77153;BME280;66124;51.146;17.072;2023-02-08T06:47:47;102901.60;;;-2.54;71.72
77153;BME280;66124;51.146;17.072;2023-02-08T06:54:02;102903.69;;;-2.55;71.79
77153;BME280;66124;51.146;17.072;2023-02-08T06:56:32;102908.53;;;-2.56;72.06
77153;BME280;66124;51.146;17.072;2023-02-08T06:59:01;102913.02;;;-2.56;72.10
77153;BME280;66124;51.146;17.072;2023-02-08T07:01:30;102914.23;;;-2.57;72.20
77153;BME280;66124;51.146;17.072;2023-02-08T07:04:00;102923.54;;;-2.57;72.33
77153;BME280;66124;51.146;17.072;2023-02-08T07:06:29;102923.70;;;-2.57;72.31
77153;BME280;66124;51.146;17.072;2023-02-08T07:08:59;102921.13;;;-2.57;72.40
77153;BME280;66124;51.146;17.072;2023-02-08T07:11:28;102926.13;;;-2.58;72.52
77153;BME280;66124;51.146;17.072;2023-02-08T07:13:58;102928.53;;;-2.58;72.60
77153;BME280;66124;51.146;17.072;2023-02-08T07:16:27;102935.38;;;-2.55;72.80
77153;BME280;66124;51.146;17.072;2023-02-08T07:18:56;102939.45;;;-2.52;72.87
77153;BME280;66124;51.146;17.072;2023-02-08T07:21:26;102949.38;;;-2.49;72.87
77153;BME280;66124;51.146;17.072;2023-02-08T07:23:55;102951.20;;;-2.45;72.94
77153;BME280;66124;51.146;17.072;2023-02-08T07:26:25;102947.98;;;-2.40;73.03
77153;BME280;66124;51.146;17.072;2023-02-08T07:28:54;102949.75;;;-2.34;73.06
77153;BME280;66124;51.146;17.072;2023-02-08T07:31:23;102959.83;;;-2.29;73.09
77153;BME280;66124;51.146;17.072;2023-02-08T07:33:53;102959.34;;;-2.23;73.22
77153;BME280;66124;51.146;17.072;2023-02-08T07:36:22;102956.79;;;-2.16;73.24
77153;BME280;66124;51.146;17.072;2023-02-08T07:38:52;102962.31;;;-2.08;73.16
77153;BME280;66124;51.146;17.072;2023-02-08T07:41:21;102963.34;;;-1.99;73.18
77153;BME280;66124;51.146;17.072;2023-02-08T07:43:50;102973.84;;;-1.90;73.27
77153;BME280;66124;51.146;17.072;2023-02-08T07:46:21;102970.73;;;-1.82;73.20
77153;BME280;66124;51.146;17.072;2023-02-08T07:48:50;102975.88;;;-1.73;73.21
77153;BME280;66124;51.146;17.072;2023-02-08T07:51:19;102979.63;;;-1.64;73.26
77153;BME280;66124;51.146;17.072;2023-02-08T07:53:49;102983.89;;;-1.54;73.21
77153;BME280;66124;51.146;17.072;2023-02-08T07:56:18;102986.74;;;-1.43;73.31
77153;BME280;66124;51.146;17.072;2023-02-08T07:58:48;102988.39;;;-1.32;73.22
77153;BME280;66124;51.146;17.072;2023-02-08T08:01:17;102989.33;;;-1.21;73.28
77153;BME280;66124;51.146;17.072;2023-02-08T08:03:47;102996.62;;;-1.09;73.18
77153;BME280;66124;51.146;17.072;2023-02-08T08:06:15;102994.29;;;-0.98;73.09
77153;BME280;66124;51.146;17.072;2023-02-08T08:13:20;102995.77;;;-0.68;73.07
77153;BME280;66124;51.146;17.072;2023-02-08T08:15:50;102999.31;;;-0.59;73.15
77153;BME280;66124;51.146;17.072;2023-02-08T08:18:19;102990.64;;;-0.51;72.71
77153;BME280;66124;51.146;17.072;2023-02-08T08:20:49;102985.80;;;-0.45;72.91
77153;BME280;66124;51.146;17.072;2023-02-08T08:23:18;102985.09;;;-0.38;72.72
77153;BME280;66124;51.146;17.072;2023-02-08T08:25:49;102985.27;;;-0.32;72.51
77153;BME280;66124;51.146;17.072;2023-02-08T08:28:18;102984.38;;;-0.25;72.66
77153;BME280;66124;51.146;17.072;2023-02-08T08:30:48;102980.34;;;-0.17;72.54
77153;BME280;66124;51.146;17.072;2023-02-08T08:33:17;102984.61;;;-0.09;72.42
77153;BME280;66124;51.146;17.072;2023-02-08T08:35:47;102979.95;;;-0.03;72.40
77153;BME280;66124;51.146;17.072;2023-02-08T08:38:16;102974.80;;;0.02;72.10
77153;BME280;66124;51.146;17.072;2023-02-08T08:40:46;102978.73;;;0.03;72.15
77153;BME280;66124;51.146;17.072;2023-02-08T08:43:15;102980.73;;;0.05;72.01
77153;BME280;66124;51.146;17.072;2023-02-08T08:45:44;102976.80;;;0.09;71.96
77153;BME280;66124;51.146;17.072;2023-02-08T08:48:14;102978.86;;;0.16;71.91
77153;BME280;66124;51.146;17.072;2023-02-08T08:50:43;102977.49;;;0.21;71.76
77153;BME280;66124;51.146;17.072;2023-02-08T08:53:12;102977.81;;;0.28;71.58
77153;BME280;66124;51.146;17.072;2023-02-08T08:55:42;102976.44;;;0.33;71.65
77153;BME280;66124;51.146;17.072;2023-02-08T08:58:11;102979.08;;;0.37;71.29
77153;BME280;66124;51.146;17.072;2023-02-08T09:00:41;102983.13;;;0.35;71.30
77153;BME280;66124;51.146;17.072;2023-02-08T09:03:10;102983.02;;;0.33;71.24
77153;BME280;66124;51.146;17.072;2023-02-08T09:05:39;102986.91;;;0.36;71.51
77153;BME280;66124;51.146;17.072;2023-02-08T09:08:09;102983.31;;;0.40;71.27
77153;BME280;66124;51.146;17.072;2023-02-08T09:10:38;102987.33;;;0.44;71.17
77153;BME280;66124;51.146;17.072;2023-02-08T09:13:08;102986.38;;;0.47;71.28
77153;BME280;66124;51.146;17.072;2023-02-08T09:15:40;102983.39;;;0.54;71.02
77153;BME280;66124;51.146;17.072;2023-02-08T09:18:09;102981.41;;;0.61;71.04
77153;BME280;66124;51.146;17.072;2023-02-08T09:20:39;102984.23;;;0.66;70.90
77153;BME280;66124;51.146;17.072;2023-02-08T09:23:07;102988.30;;;0.68;70.85
77153;BME280;66124;51.146;17.072;2023-02-08T09:33:05;102993.80;;;0.70;70.42
77153;BME280;66124;51.146;17.072;2023-02-08T09:35:34;102993.43;;;0.71;70.46
77153;BME280;66124;51.146;17.072;2023-02-08T09:38:04;102991.16;;;0.72;70.38
77153;BME280;66124;51.146;17.072;2023-02-08T09:40:40;102989.17;;;0.74;70.41
77153;BME280;66124;51.146;17.072;2023-02-08T09:43:14;102985.26;;;0.77;70.53
77153;BME280;66124;51.146;17.072;2023-02-08T09:45:50;102985.95;;;0.82;70.10
77153;BME280;66124;51.146;17.072;2023-02-08T09:48:27;102990.38;;;0.90;70.29
77153;BME280;66124;51.146;17.072;2023-02-08T09:50:56;102991.35;;;0.97;70.19
77153;BME280;66124;51.146;17.072;2023-02-08T09:53:33;102988.06;;;0.97;70.42
77153;BME280;66124;51.146;17.072;2023-02-08T09:56:05;102986.17;;;0.97;70.00
77153;BME280;66124;51.146;17.072;2023-02-08T09:58:36;102986.58;;;0.95;70.00
77153;BME280;66124;51.146;17.072;2023-02-08T10:01:09;102988.16;;;0.94;70.09
77153;BME280;66124;51.146;17.072;2023-02-08T10:03:43;102985.86;;;0.96;70.07
77153;BME280;66124;51.146;17.072;2023-02-08T10:06:16;102984.16;;;0.95;70.03
77153;BME280;66124;51.146;17.072;2023-02-08T10:08:49;102986.23;;;0.95;69.83
77153;BME280;66124;51.146;17.072;2023-02-08T10:11:38;102984.88;;;0.94;69.98
77153;BME280;66124;51.146;17.072;2023-02-08T10:17:08;102976.41;;;0.93;70.30
77153;BME280;66124;51.146;17.072;2023-02-08T10:19:54;102977.23;;;0.95;70.12
77153;BME280;66124;51.146;17.072;2023-02-08T10:22:37;102973.92;;;0.95;70.23
77153;BME280;66124;51.146;17.072;2023-02-08T10:25:22;102972.18;;;0.95;69.96
77153;BME280;66124;51.146;17.072;2023-02-08T10:28:17;102968.30;;;0.98;70.03
77153;BME280;66124;51.146;17.072;2023-02-08T10:30:54;102966.29;;;1.01;70.01
77153;BME280;66124;51.146;17.072;2023-02-08T10:33:38;102961.74;;;1.02;70.02
77153;BME280;66124;51.146;17.072;2023-02-08T10:36:17;102961.67;;;0.99;69.73
77153;BME280;66124;51.146;17.072;2023-02-08T10:38:52;102961.13;;;0.94;69.84
77153;BME280;66124;51.146;17.072;2023-02-08T10:41:31;102953.95;;;0.92;70.07
77153;BME280;66124;51.146;17.072;2023-02-08T10:44:01;102954.31;;;0.91;69.97
77153;BME280;66124;51.146;17.072;2023-02-08T10:52:43;102949.70;;;1.05;70.10
77153;BME280;66124;51.146;17.072;2023-02-08T10:55:20;102950.52;;;1.06;70.20
77153;BME280;66124;51.146;17.072;2023-02-08T10:58:06;102945.02;;;1.10;70.01
77153;BME280;66124;51.146;17.072;2023-02-08T11:00:39;102944.17;;;1.09;70.15
77153;BME280;66124;51.146;17.072;2023-02-08T11:03:16;102936.95;;;1.08;70.06
77153;BME280;66124;51.146;17.072;2023-02-08T11:05:46;102934.55;;;1.12;70.23
77153;BME280;66124;51.146;17.072;2023-02-08T11:08:20;102930.92;;;1.21;70.26
77153;BME280;66124;51.146;17.072;2023-02-08T11:11:04;102924.84;;;1.32;70.15
77153;BME280;66124;51.146;17.072;2023-02-08T11:13:41;102928.33;;;1.41;70.26
77153;BME280;66124;51.146;17.072;2023-02-08T11:16:20;102937.83;;;1.46;70.01
77153;BME280;66124;51.146;17.072;2023-02-08T11:18:53;102929.19;;;1.46;69.87
77153;BME280;66124;51.146;17.072;2023-02-08T11:21:22;102929.52;;;1.46;70.04
77153;BME280;66124;51.146;17.072;2023-02-08T11:23:59;102921.48;;;1.43;69.81
77153;BME280;66124;51.146;17.072;2023-02-08T11:26:40;102915.17;;;1.40;69.91
77153;BME280;66124;51.146;17.072;2023-02-08T11:29:15;102911.19;;;1.40;69.88
77153;BME280;66124;51.146;17.072;2023-02-08T11:32:12;102908.48;;;1.43;69.82
77153;BME280;66124;51.146;17.072;2023-02-08T11:34:52;102909.56;;;1.47;69.86
77153;BME280;66124;51.146;17.072;2023-02-08T11:37:46;102909.21;;;1.56;69.91
77153;BME280;66124;51.146;17.072;2023-02-08T11:40:23;102908.95;;;1.59;69.76
77153;BME280;66124;51.146;17.072;2023-02-08T11:42:57;102898.01;;;1.64;69.42
77153;BME280;66124;51.146;17.072;2023-02-08T11:45:33;102901.14;;;1.77;69.65
77153;BME280;66124;51.146;17.072;2023-02-08T11:48:04;102898.16;;;2.00;69.39
77153;BME280;66124;51.146;17.072;2023-02-08T11:50:42;102900.52;;;2.33;69.01
77153;BME280;66124;51.146;17.072;2023-02-08T11:53:22;102902.11;;;2.74;68.95
77153;BME280;66124;51.146;17.072;2023-02-08T11:56:02;102896.43;;;3.06;68.31
77153;BME280;66124;51.146;17.072;2023-02-08T11:58:32;102893.35;;;3.16;67.62
77153;BME280;66124;51.146;17.072;2023-02-08T12:01:05;102892.46;;;3.24;67.72
77153;BME280;66124;51.146;17.072;2023-02-08T12:03:34;102893.39;;;3.43;67.45
77153;BME280;66124;51.146;17.072;2023-02-08T12:13:04;102883.94;;;3.55;66.39
77153;BME280;66124;51.146;17.072;2023-02-08T12:15:45;102892.15;;;3.47;66.02
77153;BME280;66124;51.146;17.072;2023-02-08T12:18:31;102885.40;;;3.31;66.18
77153;BME280;66124;51.146;17.072;2023-02-08T12:21:06;102888.06;;;3.14;66.01
77153;BME280;66124;51.146;17.072;2023-02-08T12:23:52;102881.77;;;2.96;65.94
77153;BME280;66124;51.146;17.072;2023-02-08T12:29:23;102886.83;;;2.58;66.35
77153;BME280;66124;51.146;17.072;2023-02-08T12:32:10;102884.19;;;2.46;66.54
77153;BME280;66124;51.146;17.072;2023-02-08T12:35:02;102884.79;;;2.31;66.82
77153;BME280;66124;51.146;17.072;2023-02-08T12:37:38;102881.02;;;2.18;66.89
77153;BME280;66124;51.146;17.072;2023-02-08T12:40:22;102884.48;;;2.08;67.04
77153;BME280;66124;51.146;17.072;2023-02-08T12:43:07;102886.35;;;2.01;67.19
77153;BME280;66124;51.146;17.072;2023-02-08T12:48:58;102883.42;;;1.87;67.33
77153;BME280;66124;51.146;17.072;2023-02-08T12:51:39;102881.03;;;1.82;67.64
77153;BME280;66124;51.146;17.072;2023-02-08T12:54:12;102875.40;;;1.80;67.76
77153;BME280;66124;51.146;17.072;2023-02-08T12:56:45;102873.44;;;1.85;67.64
77153;BME280;66124;51.146;17.072;2023-02-08T12:59:22;102871.92;;;1.93;67.66
77153;BME280;66124;51.146;17.072;2023-02-08T13:01:56;102868.69;;;2.00;67.19
77153;BME280;66124;51.146;17.072;2023-02-08T13:04:31;102869.02;;;2.04;67.10
77153;BME280;66124;51.146;17.072;2023-02-08T13:07:09;102866.91;;;2.05;66.80
77153;BME280;66124;51.146;17.072;2023-02-08T13:09:44;102871.06;;;2.01;66.84
77153;BME280;66124;51.146;17.072;2023-02-08T13:12:17;102867.06;;;1.97;66.92
77153;BME280;66124;51.146;17.072;2023-02-08T13:14:52;102868.46;;;1.92;66.77
77153;BME280;66124;51.146;17.072;2023-02-08T13:17:25;102865.35;;;1.88;66.93
77153;BME280;66124;51.146;17.072;2023-02-08T13:19:59;102862.59;;;1.87;66.80
77153;BME280;66124;51.146;17.072;2023-02-08T13:22:31;102864.13;;;1.93;66.82
77153;BME280;66124;51.146;17.072;2023-02-08T13:24:59;102861.50;;;2.24;67.11
77153;BME280;66124;51.146;17.072;2023-02-08T13:48:26;102843.98;;;3.59;63.18
77153;BME280;66124;51.146;17.072;2023-02-08T13:54:24;102842.55;;;2.98;63.42
77153;BME280;66124;51.146;17.072;2023-02-08T13:56:53;102844.06;;;2.87;63.49
77153;BME280;66124;51.146;17.072;2023-02-08T13:59:34;102839.84;;;2.80;63.71
77153;BME280;66124;51.146;17.072;2023-02-08T14:02:27;102842.81;;;2.72;63.57
77153;BME280;66124;51.146;17.072;2023-02-08T14:07:59;102849.44;;;2.47;63.74
77153;BME280;66124;51.146;17.072;2023-02-08T14:10:45;102844.43;;;2.46;63.85
77153;BME280;66124;51.146;17.072;2023-02-08T14:13:25;102835.67;;;2.56;63.71
77153;BME280;66124;51.146;17.072;2023-02-08T14:18:37;102826.02;;;2.55;63.58
77153;BME280;66124;51.146;17.072;2023-02-08T14:21:16;102822.73;;;2.50;63.57
77153;BME280;66124;51.146;17.072;2023-02-08T14:23:59;102822.98;;;2.56;63.46
77153;BME280;66124;51.146;17.072;2023-02-08T14:26:30;102825.57;;;2.57;63.27
77153;BME280;66124;51.146;17.072;2023-02-08T14:29:02;102823.21;;;2.59;63.30
77153;BME280;66124;51.146;17.072;2023-02-08T14:31:43;102822.21;;;2.58;63.26
77153;BME280;66124;51.146;17.072;2023-02-08T14:34:28;102816.34;;;2.57;63.08
77153;BME280;66124;51.146;17.072;2023-02-08T14:37:05;102814.98;;;2.61;63.38
77153;BME280;66124;51.146;17.072;2023-02-08T14:40:45;102812.58;;;2.68;63.36
77153;BME280;66124;51.146;17.072;2023-02-08T14:43:35;102809.28;;;2.68;63.14
77153;BME280;66124;51.146;17.072;2023-02-08T14:49:13;102801.79;;;2.61;63.35
77153;BME280;66124;51.146;17.072;2023-02-08T14:51:48;102796.63;;;2.56;63.44
77153;BME280;66124;51.146;17.072;2023-02-08T14:54:26;102796.48;;;2.47;63.51
77153;BME280;66124;51.146;17.072;2023-02-08T14:56:57;102788.77;;;2.29;63.64
77153;BME280;66124;51.146;17.072;2023-02-08T14:59:27;102802.64;;;2.28;64.05